This is the latest recevied weather packets stored in our database for station/object ON7LDS-13. If no packets are shown the sender has not sent any weather packets the latest 10 day(s).
| Time | Temp. | Humidity | Pressure | Rain* | Wind** | Luminosity | Snow |
|---|---|---|---|---|---|---|---|
| 1777968397 | 11.67° C | 1% | 1015 hPa | - | - | - | - |
| 1777967747 | 11.67° C | 1% | 1015 hPa | - | - | - | - |
| 1777966547 | 11.67° C | 1% | 1015.1 hPa | - | - | - | - |
| 1777964146 | 12.22° C | 1% | 1015 hPa | - | - | - | - |
| 1777961746 | 12.22° C | 1% | 1015.2 hPa | - | - | - | - |
| 1777952775 | 12.78° C | 1% | 1015.1 hPa | - | - | - | - |
| 1777952165 | 12.78° C | 1% | 1015.1 hPa | - | - | - | - |
| 1777950974 | 13.33° C | 1% | 1015.1 hPa | - | - | - | - |
| 1777950375 | 13.33° C | 1% | 1015.1 hPa | - | - | - | - |
| 1777944393 | 14.44° C | 1% | 1015.3 hPa | - | - | - | - |
| 1777938973 | 14.44° C | 1% | 1015.9 hPa | - | - | - | - |
| 1777936544 | 14.44° C | 1% | 1016 hPa | - | - | - | - |
| 1777930542 | 14.44° C | 1% | 1016.9 hPa | - | - | - | - |
| 1777922771 | 15° C | 1% | 1016.8 hPa | - | - | - | - |
| 1777920340 | 15.56° C | 1% | 1016.7 hPa | - | - | - | - |
| 1777919770 | 15.56° C | 1% | 1016.8 hPa | - | - | - | - |
| 1777913169 | 18.33° C | 11% | 1016.5 hPa | - | - | - | - |
| 1777906539 | 19.44° C | 9% | 1016.9 hPa | - | - | - | - |
| 1777905339 | 19.44° C | 12% | 1017 hPa | - | - | - | - |
| 1777901138 | 20° C | 11% | 1017.5 hPa | - | - | - | - |
| 1777899368 | 19.44° C | 3% | 1017.7 hPa | - | - | - | - |
| 1777897538 | 19.44° C | 1% | 1017.8 hPa | - | - | - | - |
| 1777895737 | 18.89° C | 1% | 1017.9 hPa | - | - | - | - |
| 1777895137 | 18.33° C | 1% | 1017.9 hPa | - | - | - | - |
| 1777890396 | 17.22° C | 1% | 1018.4 hPa | - | - | - | - |
* Rain since midnight (hover to see other rain measurements)
** Current wind speed in m/s (hover to see current wind gust speed)